Latest Coastal Weather Observations for Swan Island

IDT60701

Issued at 10:35 am EST Wednesday 1 October 2014 (issued every 10 minutes, with the page automatically refreshed every 10 minutes)

About coastal observations | Map of coastal stations | Coastal observations for TAS | Marine services | Other Formats
Station Details ID: 092123 Name: SWAN ISLAND Lat: -40.73 Lon: 148.12 Height: 15.0 m
Data from the previous 72 hours. | See also: Recent months at Swan Island
Date/Time
EST
Temp

°C
Wind Pressure Rain
since 9am
mm
Weather Cloud Vis
km
Sea
Height
m
Swell
Dir
 
Speed
knots
Gust
knots
hPa Trend Height
m
Period
s
Dir
01/10:30am 13.4 W 14 20 1016.2 - 0.0 - - - - - - -
01/10:00am 12.9 W 12 18 1016.0 - 0.0 - - - - - - -
01/09:30am 12.0 W 13 18 1015.7 - 0.0 - - - - - - -
01/09:00am 11.3 W 13 19 1015.5 - 6.2 - - - - - - -
01/08:30am 10.3 WSW 10 15 1015.1 - 6.2 - - - - - - -
01/08:00am 9.8 WSW 8 13 1014.6 - 6.2 - - - - - - -
01/07:30am 8.9 WSW 10 16 1013.8 - 6.2 - - - - - - -
01/07:00am 8.5 WSW 11 16 1013.2 - 6.2 - - - - - - -
01/06:30am 7.3 WSW 11 16 1012.4 - 6.2 - - - - - - -
01/06:00am 6.5 W 11 17 1011.5 - 6.2 - - - - - - -
01/05:30am 6.7 WSW 11 16 1011.1 - 6.2 - - - - - - -
01/05:00am 7.0 WSW 11 19 1010.3 - 6.2 - - - - - - -
01/04:30am 7.0 SW 9 13 1009.6 - 6.2 - - - - - - -
01/04:00am 7.6 WSW 11 18 1008.7 - 6.2 - - - - - - -
01/03:30am 7.9 WSW 11 18 1007.7 - 6.2 - - - - - - -
01/03:00am 8.1 W 12 18 1007.1 - 6.2 - - - - - - -
01/02:30am 8.2 W 11 18 1006.9 - 6.2 - - - - - - -
01/02:00am 8.4 WSW 12 20 1006.6 - 6.2 - - - - - - -
01/01:30am 9.0 W 13 21 1006.2 - 6.2 - - - - - - -
01/01:00am 9.2 WSW 14 28 1005.9 - 6.2 - - - - - - -
01/12:31am 9.6 W 17 27 1005.2 - 6.2 - - - - - - -
01/12:30am 9.6 W 18 27 1005.1 - 6.2 - - - - - - -
01/12:00am 9.3 W 17 27 1004.8 - 6.2 - - - - - - -
 
Date/Time
EST
Temp

°C
Wind Pressure Rain
since 9am
mm
Weather Cloud Vis
km
Sea
Height
m
Swell
Dir
 
Speed
knots
Gust
knots
hPa Trend Height
m
Period
s
Dir
30/11:59pm 9.3 W 17 27 1004.7 - 6.2 - - - - - - -
30/11:30pm 9.6 W 20 27 1004.4 - 6.2 - - - - - - -
30/11:00pm 9.6 W 18 27 1004.0 - 6.2 - - - - - - -
30/10:43pm 9.8 W 18 29 1003.9 - 6.2 - - - - - - -
30/10:30pm 9.4 W 18 26 1003.8 - 6.2 - - - - - - -
30/10:02pm 9.4 W 19 29 1003.2 - 6.2 - - - - - - -
30/10:00pm 9.4 W 19 28 1003.2 - 6.2 - - - - - - -
30/09:30pm 9.8 W 20 31 1003.0 - 6.2 - - - - - - -
30/09:00pm 10.4 W 25 36 1002.3 - 6.2 - - - - - - -
30/08:30pm 10.2 W 27 39 1001.4 - 6.2 - - - - - - -
30/08:00pm 10.7 WNW 21 33 1000.8 - 6.2 - - - - - - -
30/07:32pm 10.7 WNW 23 34 1000.3 - 6.2 - - - - - - -
30/07:30pm 10.9 WNW 25 35 1000.6 - 6.2 - - - - - - -
30/07:00pm 10.8 W 20 33 999.9 - 6.2 - - - - - - -
30/06:30pm 10.2 W 27 40 998.8 - 6.2 - - - - - - -
30/06:00pm 10.9 WNW 20 30 998.0 - 5.8 Recent precip. - - - - - -
30/05:35pm 11.6 WNW 23 33 997.8 - 5.6 - - - - - - -
30/05:30pm 11.5 WNW 22 29 997.8 - 5.4 - - - - - - -
30/05:06pm 11.4 WNW 20 31 997.8 - 5.0 - - - - - - -
30/05:00pm 11.4 WNW 22 31 997.8 - 4.8 - - - - - - -
30/04:30pm 11.4 W 20 31 997.9 - 3.2 - - - - - - -
30/04:00pm 12.1 WNW 23 33 997.5 - 2.2 - - - - - - -
30/03:59pm 12.3 WNW 23 33 997.5 - 2.2 - - - - - - -
30/03:55pm 12.4 WNW 25 33 997.6 - 2.2 - - - - - - -
30/03:38pm 14.6 NNW 26 37 996.6 - 0.0 - - - - - - -
30/03:30pm 15.1 NNW 26 31 996.1 - 0.0 - - - - - - -
30/03:00pm 15.4 NNW 24 29 996.5 - 0.0 - - - - - - -
30/02:30pm 14.8 NNW 22 26 997.4 - 0.0 - - - - - - -
30/02:00pm 14.8 NNW 26 31 998.4 - 0.0 - - - - - - -
30/01:30pm 15.2 NNW 25 30 999.2 - 0.0 - - - - - - -
30/01:00pm 14.7 NNW 25 31 999.6 - 0.0 - - - - - - -
30/12:30pm 14.6 NNW 27 33 1000.1 - 0.0 - - - - - - -
30/12:00pm 15.0 NNW 27 32 1000.5 - 0.0 - - - - - - -
30/11:30am 14.9 NNW 27 32 1001.0 - 0.0 - - - - - - -
30/11:00am 14.6 NNW 29 34 1001.6 - 0.0 - - - - - - -
30/10:30am 15.0 NW 27 33 1002.1 - 0.0 - - - - - - -
30/10:00am 15.0 NW 24 30 1002.7 - 0.0 - - - - - - -
30/09:30am 15.0 NW 24 31 1003.2 - 0.0 - - - - - - -
30/09:00am 14.1 NNW 21 24 1003.6 - 0.0 - - - - - - -
30/08:30am 14.1 NNW 20 24 1004.2 - 0.0 - - - - - - -
30/08:00am 13.6 NNW 22 26 1004.4 - 0.0 - - - - - - -
30/07:30am 13.6 NNW 21 25 1004.7 - 0.0 - - - - - - -
30/07:00am 13.3 NNW 21 25 1005.0 - 0.0 - - - - - - -
30/06:30am 13.1 NNW 20 26 1005.5 - 0.0 - - - - - - -
30/06:00am 13.0 NNW 18 21 1005.4 - 0.0 - - - - - - -
30/05:30am 13.0 NNW 16 19 1005.7 - 0.0 - - - - - - -
30/05:00am 13.1 NNW 16 19 1006.0 - 0.0 - - - - - - -
30/04:30am 13.3 NW 16 19 1006.7 - 0.0 - - - - - - -
30/04:00am 13.3 NNW 18 21 1007.0 - 0.0 - - - - - - -
30/03:30am 13.4 NW 20 23 1007.3 - 0.0 - - - - - - -
30/03:00am 13.4 NNW 21 26 1007.4 - 0.0 - - - - - - -
30/02:30am 13.4 NNW 22 26 1007.8 - 0.0 - - - - - - -
30/02:00am 13.3 NNW 23 27 1008.3 - 0.0 - - - - - - -
30/01:30am 13.3 NNW 25 31 1008.6 - 0.0 - - - - - - -
30/01:00am 13.2 NNW 24 28 1009.0 - 0.0 - - - - - - -
30/12:30am 13.3 NNW 24 28 1009.3 - 0.0 - - - - - - -
30/12:00am 13.0 NNW 24 28 1009.3 - 0.0 - - - - - - -
 
Date/Time
EST
Temp

°C
Wind Pressure Rain
since 9am
mm
Weather Cloud Vis
km
Sea
Height
m
Swell
Dir
 
Speed
knots
Gust
knots
hPa Trend Height
m
Period
s
Dir
29/11:30pm 13.2 NNW 22 27 1009.4 - 0.0 - - - - - - -
29/11:00pm 13.0 NW 20 24 1009.5 - 0.0 - - - - - - -
29/10:30pm 13.0 NNW 19 24 1009.5 - 0.0 - - - - - - -
29/10:00pm 12.9 NW 14 20 1009.3 - 0.0 - - - - - - -
29/09:30pm 12.8 WNW 15 21 1009.0 - 0.0 - - - - - - -
29/09:00pm 12.8 WNW 16 23 1008.9 - 0.0 - - - - - - -
29/08:30pm 12.7 WNW 14 20 1008.8 - 0.0 - - - - - - -
29/08:00pm 12.8 WNW 17 23 1009.0 - 0.0 - - - - - - -
29/07:30pm 12.9 WNW 17 25 1008.9 - 0.0 - - - - - - -
29/07:00pm 12.9 WNW 19 28 1008.7 - 0.0 - - - - - - -
29/06:30pm 13.0 WNW 22 29 1008.4 - 0.0 - - - - - - -
29/06:00pm 13.1 WNW 22 31 1008.4 - 0.0 - - - - - - -
29/05:30pm 13.4 WNW 23 29 1008.2 - 0.0 - - - - - - -
29/05:00pm 13.8 WNW 20 27 1008.0 - 0.0 - - - - - - -
29/04:30pm 13.9 WNW 23 30 1007.7 - 0.0 - - - - - - -
29/04:00pm 14.2 WNW 21 28 1008.2 - 0.0 - - - - - - -
29/03:30pm 14.3 WNW 22 30 1008.4 - 0.0 - - - - - - -
29/03:00pm 14.9 WNW 21 31 1008.3 - 0.0 - - - - - - -
29/02:42pm 14.9 WNW 21 31 1008.2 - 0.0 - - - - - - -
29/02:30pm 14.9 WNW 21 29 1008.0 - 0.0 - - - - - - -
29/02:17pm 15.0 WNW 21 31 1008.0 - 0.0 - - - - - - -
29/02:00pm 15.0 WNW 24 31 1007.9 - 0.0 - - - - - - -
29/01:30pm 15.1 WNW 22 32 1008.0 - 0.0 - - - - - - -
29/01:28pm 14.9 WNW 21 32 1007.9 - 0.0 - - - - - - -
29/01:00pm 15.4 WNW 22 30 1008.0 - 0.0 - - - - - - -
29/12:33pm 14.7 WNW 22 33 1008.0 - 0.0 - - - - - - -
29/12:30pm 14.1 WNW 22 30 1008.2 - 0.0 - - - - - - -
29/12:00pm 15.2 WNW 21 29 1008.0 - 0.0 - - - - - - -
29/11:30am 15.2 WNW 20 28 1007.8 - 0.0 - - - - - - -
29/11:12am 14.9 WNW 22 32 1007.4 - 0.0 - - - - - - -
29/11:00am 15.1 W 19 27 1007.3 - 0.0 - - - - - - -
29/10:49am 14.9 WNW 22 33 1007.3 - 0.0 - - - - - - -
29/10:30am 14.7 WNW 24 33 1007.1 - 0.0 - - - - - - -
29/10:00am 14.5 WNW 23 31 1007.2 - 0.0 - - - - - - -
29/09:52am 14.6 WNW 21 31 1007.1 - 0.0 - - - - - - -
29/09:30am 14.7 WNW 20 26 1007.7 - 0.0 - - - - - - -
29/09:00am 14.1 WNW 21 28 1007.6 - 3.8 - - - - - - -
29/08:30am 13.8 WNW 18 25 1007.6 - 3.8 - - - - - - -
29/08:00am 13.3 WNW 17 26 1007.3 - 3.8 - - - - - - -
29/07:30am 13.0 WNW 18 25 1006.8 - 3.8 - - - - - - -
29/07:00am 12.8 WNW 18 26 1006.3 - 3.8 - - - - - - -
29/06:30am 12.5 WNW 18 26 1006.0 - 3.8 - - - - - - -
29/06:00am 12.3 WNW 21 30 1005.3 - 3.8 Recent precip. - - - - - -
29/05:30am 12.8 WNW 18 31 1004.5 - 3.8 - - - - - - -
29/05:12am 13.2 NW 22 33 1004.3 - 1.4 - - - - - - -
29/05:00am 13.6 NW 23 32 1003.9 - 0.8 - - - - - - -
29/04:30am 13.4 NW 19 27 1003.7 - 0.8 - - - - - - -
29/04:00am 13.5 WNW 22 31 1003.6 - 0.8 - - - - - - -
29/03:30am 13.2 WNW 20 27 1003.0 - 0.8 - - - - - - -
29/03:00am 13.1 WNW 16 22 1003.3 - 0.8 - - - - - - -
29/02:30am 13.4 NW 19 25 1003.5 - 0.8 - - - - - - -
29/02:00am 13.4 NW 17 23 1002.8 - 0.8 - - - - - - -
29/01:30am 14.4 NW 16 23 1002.3 - 0.0 - - - - - - -
29/01:00am 14.8 NNW 16 18 1002.4 - 0.0 - - - - - - -
29/12:30am 14.9 NNW 15 17 1002.8 - 0.0 - - - - - - -
29/12:00am 14.9 NNW 13 16 1002.2 - 0.0 - - - - - - -
 
Date/Time
EST
Temp

°C
Wind Pressure Rain
since 9am
mm
Weather Cloud Vis
km
Sea
Height
m
Swell
Dir
 
Speed
knots
Gust
knots
hPa Trend Height
m
Period
s
Dir
28/11:30pm 15.0 N 14 16 1002.1 - 0.0 - - - - - - -
28/11:00pm 15.1 N 15 17 1002.5 - 0.0 - - - - - - -
28/10:30pm 16.1 NNW 18 21 1002.7 - 0.0 - - - - - - -
28/10:00pm 17.2 NW 21 27 1002.5 - 0.0 - - - - - - -
28/09:40pm 17.7 NW 22 33 1002.4 - 0.0 - - - - - - -
28/09:30pm 18.0 NW 18 23 1002.3 - 0.0 - - - - - - -
28/09:29pm 18.1 NW 18 23 1002.2 - 0.0 - - - - - - -
28/09:25pm 19.3 NNW 31 41 1001.6 - 0.0 - - - - - - -
28/09:22pm 19.5 NNW 33 41 1001.7 - 0.0 - - - - - - -
28/09:21pm 17.5 NW 16 41 1002.2 - 0.0 - - - - - - -
28/09:00pm 17.3 N 18 24 1001.9 - 0.0 - - - - - - -
28/08:30pm 17.9 N 23 28 1001.8 - 0.0 - - - - - - -
28/08:00pm 17.2 N 22 26 1001.8 - 0.0 - - - - - - -
28/07:30pm 17.2 N 23 28 1002.1 - 0.0 - - - - - - -
28/07:00pm 17.8 N 23 28 1002.0 - 0.0 - - - - - - -
28/06:30pm 17.7 NNE 17 23 1002.0 - 0.0 - - - - - - -
28/06:00pm 18.2 N 19 25 1002.5 - 0.0 - - - - - - -
28/05:30pm 18.6 N 21 42 1002.4 - 0.0 - - - - - - -
28/05:00pm 18.3 N 20 24 1003.0 - 0.0 - - - - - - -
28/04:30pm 18.8 N 25 30 1002.6 - 0.0 - - - - - - -
28/04:00pm 18.1 N 25 30 1003.6 - 0.0 - - - - - - -
28/03:30pm 18.2 N 25 30 1003.2 - 0.0 - - - - - - -
28/03:00pm 17.3 N 22 25 1004.0 - 0.0 - - - - - - -
28/02:30pm 17.4 NNW 23 27 1004.5 - 0.0 - - - - - - -
28/02:00pm 17.6 NNW 22 28 1005.0 - 0.0 - - - - - - -
28/01:30pm 17.8 NNW 17 20 1005.8 - 0.0 - - - - - - -
28/01:00pm 18.0 NNW 21 25 1006.1 - 0.0 - - - - - - -
28/12:30pm 19.2 N 23 28 1006.2 - 0.0 - - - - - - -
28/12:00pm 19.7 N 26 30 1005.9 - 0.0 - - - - - - -
28/11:30am 19.7 N 29 37 1005.7 - 0.0 - - - - - - -
28/11:28am 19.9 N 28 37 1005.5 - 0.0 - - - - - - -
28/11:15am 20.0 N 15 26 1006.4 - 0.0 - - - - - - -
28/11:00am 20.3 N 24 29 1007.0 - 0.0 - - - - - - -
28/10:50am 19.9 N 21 28 1007.3 - 0.0 - - - - - - -

Other Formats:

Comma delimited format used in spreadsheet applications
http://www.bom.gov.au/fwo/IDT60701/IDT60701.95985.axf

JavaScript Object Notation format (JSON) in row-major order
http://www.bom.gov.au/fwo/IDT60701/IDT60701.95985.json